Eagle Point, Wisconsin
Current Conditions -  °F | °C
As of 2:19 AM on Saturday 29 Nov 2014 (Local Time) from KEAU Reporting Station
Broken Clouds Broken Clouds  
Wind Chill: 12°   Ceiling: 1000
Heat Index: 21°   Visibility: 7mi
Dew Point: 18°   Wind: 7mph
Humidity: 88%   Direction: 80°E
Pressure: 29.67"   Gusts: NA
Location:  44.9743°N, 91.4379°W
Report Text: KEAU 290819Z AUTO 08006KT 7SM BKN010 M06/M08 A2967 RMK AO2 T10611078
Loading
Personal Weather Stations






























Interactive Weather Map New forecast layout! Learn more

10-Day Weather Forecast

Advertisements
Track Severe Weather on mobile